Time;durP1;ratioP1;P1;durP2;ratioP2;P2;SDS_P1;SDS_P2;PMS_P1;PMS_P2;Temp;Humidity;BMP_temperature;BMP_pressure;BME280_temperature;BME280_humidity;BME280_pressure;Samples;Min_cycle;Max_cycle;Signal;HPM_P1;HPM_P2
2023/11/24 00:02:24;;;;;;;15.13;2.70;;;;;;;13.29;60.43;101348.53;6089265;23;124016;-74
2023/11/24 00:04:53;;;;;;;16.08;2.78;;;;;;;13.27;60.48;101342.44;6088061;23;124481;-74
2023/11/24 00:07:21;;;;;;;12.70;2.55;;;;;;;13.27;60.25;101350.41;6088967;23;115554;-74
2023/11/24 00:09:49;;;;;;;14.68;3.15;;;;;;;13.26;60.05;101348.69;6089262;23;115193;-73
2023/11/24 00:12:16;;;;;;;16.88;2.88;;;;;;;13.24;60.10;101355.88;6088569;23;124301;-73
2023/11/24 00:14:44;;;;;;;20.00;3.00;;;;;;;13.24;60.08;101371.81;6088704;23;124118;-74
2023/11/24 00:17:11;;;;;;;18.55;2.88;;;;;;;13.24;60.05;101385.13;6089675;23;114620;-73
2023/11/24 00:19:38;;;;;;;11.65;2.33;;;;;;;13.20;59.82;101373.78;6089840;23;114023;-74
2023/11/24 00:22:06;;;;;;;13.18;2.25;;;;;;;13.16;59.66;101395.28;6089668;23;124014;-75
2023/11/24 00:24:37;;;;;;;13.18;2.38;;;;;;;13.10;59.36;101368.97;6090964;23;123650;-76
2023/11/24 00:27:06;;;;;;;11.75;2.05;;;;;;;13.00;59.31;101364.09;6090662;23;114184;-75
2023/11/24 00:29:33;;;;;;;13.82;2.08;;;;;;;12.91;59.21;101384.94;6089320;23;113055;-74
2023/11/24 00:32:00;;;;;;;13.95;2.30;;;;;;;12.81;59.26;101385.34;6087454;23;124113;-74
2023/11/24 00:34:27;;;;;;;12.93;1.83;;;;;;;12.73;59.22;101382.16;6089045;23;124659;-74
2023/11/24 00:36:54;;;;;;;11.45;1.85;;;;;;;12.66;59.19;101373.63;6088319;23;113905;-74
2023/11/24 00:39:23;;;;;;;11.82;2.03;;;;;;;12.59;59.30;101382.78;6090614;23;114150;-74
2023/11/24 00:41:51;;;;;;;11.88;2.20;;;;;;;12.55;59.39;101399.81;6089352;23;124634;-73
2023/11/24 00:44:18;;;;;;;12.90;1.83;;;;;;;12.50;59.45;101396.47;6089979;23;123742;-74
2023/11/24 00:46:46;;;;;;;11.07;1.83;;;;;;;12.44;59.34;101386.13;6089015;23;113544;-74
2023/11/24 00:49:13;;;;;;;9.70;2.03;;;;;;;12.39;59.42;101393.44;6089313;23;113252;-74
2023/11/24 00:51:40;;;;;;;10.80;1.73;;;;;;;12.35;59.59;101381.22;6088315;23;124222;-75
2023/11/24 00:54:09;;;;;;;12.85;2.05;;;;;;;12.31;59.66;101390.25;6087881;23;123455;-75
2023/11/24 00:56:36;;;;;;;15.85;2.05;;;;;;;12.29;59.83;101386.81;6090186;23;115826;-75
2023/11/24 00:59:07;;;;;;;13.52;2.28;;;;;;;12.26;59.81;101387.78;6089666;23;114630;-75
2023/11/24 01:01:34;;;;;;;14.05;2.03;;;;;;;12.24;59.78;101395.84;6088863;23;124808;-75
2023/11/24 01:04:02;;;;;;;11.95;2.25;;;;;;;12.22;59.81;101380.88;6086359;23;123103;-74
2023/11/24 01:06:29;;;;;;;12.73;2.08;;;;;;;12.19;59.90;101373.94;6089438;23;113503;-80
2023/11/24 01:09:00;;;;;;;9.75;2.00;;;;;;;12.18;60.01;101368.69;6094383;23;114077;-80
2023/11/24 01:11:27;;;;;;;14.52;2.15;;;;;;;12.17;60.11;101367.81;6091357;23;123975;-81
2023/11/24 01:13:55;;;;;;;15.93;2.17;;;;;;;12.15;60.00;101359.06;6068168;23;122686;-81
2023/11/24 01:16:23;;;;;;;14.60;1.98;;;;;;;12.14;60.02;101357.31;6094131;23;114760;-80
2023/11/24 01:18:52;;;;;;;10.60;1.60;;;;;;;12.13;59.94;101350.31;6091908;23;112156;-80
2023/11/24 01:21:21;;;;;;;10.93;2.00;;;;;;;12.12;60.00;101343.25;6091415;23;124529;-80
2023/11/24 01:23:49;;;;;;;6.82;1.67;;;;;;;12.11;59.98;101357.47;6091707;23;124491;-80
2023/11/24 01:26:21;;;;;;;12.95;1.75;;;;;;;12.08;59.86;101352.28;6090250;23;114004;-80
2023/11/24 01:28:48;;;;;;;7.38;1.63;;;;;;;12.07;59.99;101355.84;6066464;23;113100;-80
2023/11/24 01:31:15;;;;;;;14.23;2.25;;;;;;;12.05;59.92;101352.41;6090207;23;123383;-80
2023/11/24 01:33:43;;;;;;;12.45;2.05;;;;;;;12.02;59.80;101352.56;6089958;23;123374;-79
2023/11/24 01:36:31;;;;;;;11.70;2.15;;;;;;;11.97;59.75;101346.56;6093446;23;114283;-79
2023/11/24 01:39:01;;;;;;;11.02;1.95;;;;;;;11.96;59.73;101352.81;6091842;23;113488;-79
2023/11/24 01:41:28;;;;;;;8.57;1.70;;;;;;;11.93;59.60;101352.94;6091854;23;124398;-79
2023/11/24 01:43:57;;;;;;;8.27;1.95;;;;;;;11.87;59.55;101338.97;6092468;23;123981;-78
2023/11/24 01:46:28;;;;;;;11.75;1.60;;;;;;;11.85;59.44;101335.53;6089573;23;114590;-77
2023/11/24 01:48:57;;;;;;;13.85;1.77;;;;;;;11.82;59.50;101340.94;6090815;23;114250;-78
2023/11/24 01:51:24;;;;;;;8.35;1.30;;;;;;;11.80;59.66;101334.00;6090837;23;124123;-78
2023/11/24 01:54:00;;;;;;;6.75;1.38;;;;;;;11.78;59.35;101334.06;6092419;23;124142;-78
2023/11/24 01:56:28;;;;;;;9.90;1.60;;;;;;;11.76;59.51;101335.91;6092003;23;114574;-78
2023/11/24 01:59:19;;;;;;;7.30;1.30;;;;;;;11.74;59.32;101335.09;6091138;23;113585;-78
2023/11/24 02:01:46;;;;;;;7.63;1.30;;;;;;;11.73;59.49;101341.34;6092314;23;124044;-79
2023/11/24 02:04:13;;;;;;;9.27;1.60;;;;;;;11.73;59.38;101357.25;6091609;23;122692;-79
2023/11/24 02:07:36;;;;;;;9.68;1.20;;;;;;;11.72;59.32;101350.22;6093929;23;113913;-78
2023/11/24 02:10:04;;;;;;;3.50;0.82;;;;;;;11.68;59.37;101346.00;6094705;23;113724;-79
2023/11/24 02:12:44;;;;;;;5.82;1.02;;;;;;;11.67;59.21;101336.28;6093675;23;124582;-78
2023/11/24 02:15:12;;;;;;;5.82;1.10;;;;;;;11.66;59.08;101339.88;6091802;23;122482;-80
2023/11/24 02:17:40;;;;;;;8.95;1.13;;;;;;;11.65;59.02;101338.16;6093388;23;114336;-80
2023/11/24 02:20:13;;;;;;;6.32;1.15;;;;;;;11.63;58.83;101324.09;6094578;23;113672;-80
2023/11/24 02:22:42;;;;;;;6.03;1.25;;;;;;;11.60;59.00;101324.19;6093690;23;124037;-79
2023/11/24 02:25:11;;;;;;;7.78;0.90;;;;;;;11.58;58.90;101326.06;6091929;23;123487;-79
2023/11/24 02:27:38;;;;;;;5.22;1.15;;;;;;;11.56;58.91;101317.31;6093532;23;114339;-78
2023/11/24 02:30:11;;;;;;;8.77;1.20;;;;;;;11.54;58.89;101319.16;6095302;23;114677;-78
2023/11/24 02:32:38;;;;;;;6.35;1.60;;;;;;;11.53;58.72;101312.09;6092126;23;123788;-78
2023/11/24 02:35:06;;;;;;;6.70;1.27;;;;;;;11.50;59.00;101307.81;6092865;23;123520;-78
2023/11/24 02:37:35;;;;;;;6.80;1.33;;;;;;;11.49;58.85;101296.34;6094017;23;115384;-77
2023/11/24 02:40:25;;;;;;;8.43;1.50;;;;;;;11.48;59.04;101299.91;6094281;23;115061;-79
2023/11/24 02:42:52;;;;;;;9.02;1.38;;;;;;;11.48;59.09;101307.00;6093824;23;124113;-79
2023/11/24 02:45:20;;;;;;;9.90;1.30;;;;;;;11.47;59.09;101300.84;6092570;23;123136;-79
2023/11/24 02:47:48;;;;;;;7.15;1.05;;;;;;;11.46;58.99;101296.47;6094792;23;115732;-80
2023/11/24 02:50:16;;;;;;;6.25;1.00;;;;;;;11.46;59.02;101285.84;6092824;23;113602;-79
2023/11/24 02:52:45;;;;;;;4.20;1.02;;;;;;;11.44;58.87;101285.06;6093799;23;123855;-79
2023/11/24 02:55:14;;;;;;;4.82;1.13;;;;;;;11.41;59.02;101287.81;6068306;23;122884;-79
2023/11/24 02:57:43;;;;;;;6.70;1.20;;;;;;;11.39;59.01;101280.88;6094374;23;114277;-79
2023/11/24 03:00:20;;;;;;;6.50;1.02;;;;;;;11.35;58.92;101272.16;6094349;23;113356;-79
2023/11/24 03:02:48;;;;;;;8.32;1.17;;;;;;;11.34;59.20;101259.84;6092547;23;124141;-80
2023/11/24 03:05:15;;;;;;;10.75;1.25;;;;;;;11.33;59.49;101263.41;6090699;23;122030;-79
2023/11/24 03:07:43;;;;;;;8.38;1.45;;;;;;;11.32;59.48;101259.06;6092195;23;113381;-79
2023/11/24 03:10:11;;;;;;;4.80;1.00;;;;;;;11.30;59.21;101261.78;6094161;23;113952;-79
2023/11/24 03:12:44;;;;;;;6.60;1.05;;;;;;;11.29;59.35;101267.97;6092745;23;124213;-79
2023/11/24 03:15:11;;;;;;;8.05;1.05;;;;;;;11.29;59.29;101261.81;6091086;23;123833;-79
2023/11/24 03:17:40;;;;;;;8.65;1.25;;;;;;;11.28;59.27;101254.78;6067674;23;113947;-80
2023/11/24 03:20:08;;;;;;;4.80;0.88;;;;;;;11.28;59.49;101254.78;6092448;23;113332;-78
2023/11/24 03:22:35;;;;;;;6.85;1.13;;;;;;;11.25;59.48;101249.63;6090908;23;123787;-78
2023/11/24 03:25:24;;;;;;;5.60;1.17;;;;;;;11.22;59.34;101255.03;6091014;23;122883;-79
2023/11/24 03:27:51;;;;;;;12.60;1.42;;;;;;;11.21;59.46;101253.34;6090784;23;115873;-80
2023/11/24 03:30:19;;;;;;;5.50;1.08;;;;;;;11.19;59.30;101249.84;6094605;23;114876;-78
2023/11/24 03:32:47;;;;;;;7.05;1.33;;;;;;;11.16;59.37;101244.69;6091205;23;123122;-79
2023/11/24 03:35:14;;;;;;;8.88;1.45;;;;;;;11.13;59.21;101245.66;6090852;23;122461;-79
2023/11/24 03:37:43;;;;;;;7.38;1.30;;;;;;;11.09;59.35;101239.66;6089923;23;113758;-79
2023/11/24 03:40:10;;;;;;;4.72;0.88;;;;;;;11.06;59.31;101244.22;6067581;23;113119;-78
2023/11/24 03:42:38;;;;;;;6.18;1.00;;;;;;;11.01;59.20;101231.13;6090562;23;124302;-80
2023/11/24 03:45:06;;;;;;;12.00;1.48;;;;;;;10.99;59.30;101227.69;6092959;23;123763;-79
2023/11/24 03:47:44;;;;;;;7.22;1.10;;;;;;;10.96;59.33;101237.53;6092526;23;114449;-80
2023/11/24 03:50:13;;;;;;;6.07;1.15;;;;;;;10.93;59.39;101230.59;6092404;23;113128;-78
2023/11/24 03:52:41;;;;;;;6.53;1.17;;;;;;;10.89;59.29;101231.66;6091501;23;124190;-79
2023/11/24 03:55:09;;;;;;;7.50;0.93;;;;;;;10.85;59.30;101236.19;6090468;23;122079;-78
2023/11/24 03:57:41;;;;;;;7.50;1.05;;;;;;;10.81;59.50;101233.72;6091928;23;113510;-78
2023/11/24 04:00:08;;;;;;;8.38;1.10;;;;;;;10.77;59.42;101235.63;6092657;23;114471;-79
2023/11/24 04:02:42;;;;;;;6.13;1.05;;;;;;;10.74;59.64;101237.53;6092475;23;125009;-78
2023/11/24 04:05:10;;;;;;;5.28;1.08;;;;;;;10.71;59.69;101234.06;6092522;23;124401;-78
2023/11/24 04:07:39;;;;;;;6.70;1.40;;;;;;;10.70;59.56;101245.63;6090953;23;113327;-77
2023/11/24 04:10:07;;;;;;;5.18;1.00;;;;;;;10.68;59.75;101244.81;6093531;23;114121;-78
2023/11/24 04:12:34;;;;;;;7.10;1.38;;;;;;;10.68;59.75;101244.81;6091374;23;124157;-77
2023/11/24 04:15:09;;;;;;;8.23;1.17;;;;;;;10.68;59.83;101243.94;6092435;23;123988;-77
2023/11/24 04:17:36;;;;;;;5.47;1.13;;;;;;;10.68;59.98;101246.56;6090983;23;115054;-78
2023/11/24 04:20:04;;;;;;;6.32;1.10;;;;;;;10.68;59.99;101260.72;6093634;23;114948;-78
2023/11/24 04:22:33;;;;;;;9.63;1.20;;;;;;;10.68;60.13;101260.72;6093339;23;124063;-78
2023/11/24 04:25:00;;;;;;;7.05;0.98;;;;;;;10.68;60.25;101252.75;6089790;23;123227;-78
2023/11/24 04:27:39;;;;;;;6.93;1.17;;;;;;;10.68;60.24;101244.81;6091014;23;115332;-78
2023/11/24 04:30:07;;;;;;;7.40;1.20;;;;;;;10.68;60.37;101238.63;6091360;23;113329;-80
2023/11/24 04:32:35;;;;;;;8.55;1.23;;;;;;;10.68;60.28;101228.03;6093652;23;124754;-80
2023/11/24 04:35:03;;;;;;;9.68;1.27;;;;;;;10.67;60.26;101232.47;6094266;23;123330;-79
2023/11/24 04:37:30;;;;;;;7.93;1.20;;;;;;;10.67;60.36;101224.53;6094830;23;114195;-80
2023/11/24 04:39:57;;;;;;;14.10;1.48;;;;;;;10.68;60.36;101228.91;6095303;23;114250;-81
2023/11/24 04:42:26;;;;;;;10.60;1.20;;;;;;;10.68;60.51;101223.63;6090654;23;122613;-80
2023/11/24 04:44:55;;;;;;;5.03;0.93;;;;;;;10.69;60.33;101222.69;6067894;23;122609;-80
2023/11/24 04:47:23;;;;;;;7.88;1.17;;;;;;;10.68;60.36;101218.31;6094018;23;114550;-79
2023/11/24 04:49:50;;;;;;;5.95;1.20;;;;;;;10.68;60.49;101213.03;6091936;23;113622;-79
2023/11/24 04:52:17;;;;;;;6.93;1.20;;;;;;;10.68;60.49;101202.44;6092922;23;124004;-79
2023/11/24 04:55:04;;;;;;;5.45;0.90;;;;;;;10.68;60.51;101207.72;6093551;23;123828;-79
2023/11/24 04:57:31;;;;;;;6.38;1.23;;;;;;;10.69;60.66;101205.94;6092863;23;115113;-79
2023/11/24 05:00:02;;;;;;;7.82;1.15;;;;;;;10.70;60.55;101190.00;6093850;23;113931;-79
2023/11/24 05:02:34;;;;;;;9.40;1.42;;;;;;;10.70;60.80;101205.88;6091974;23;124029;-79
2023/11/24 05:05:03;;;;;;;7.03;1.15;;;;;;;10.71;60.63;101197.00;6094124;23;123360;-79
2023/11/24 05:07:30;;;;;;;8.57;1.30;;;;;;;10.73;60.59;101188.13;6094626;23;115111;-79
2023/11/24 05:09:57;;;;;;;6.35;1.27;;;;;;;10.71;60.63;101181.09;6095076;23;114673;-78
2023/11/24 05:12:25;;;;;;;10.35;1.40;;;;;;;10.71;60.64;101180.25;6094184;23;124542;-78
2023/11/24 05:14:53;;;;;;;9.00;1.30;;;;;;;10.69;60.69;101188.25;6091804;23;124230;-78
2023/11/24 05:17:24;;;;;;;5.75;1.10;;;;;;;10.68;60.63;101180.34;6093055;23;113457;-79
2023/11/24 05:20:01;;;;;;;8.50;1.20;;;;;;;10.67;60.61;101174.19;6093977;23;114192;-78
2023/11/24 05:22:28;;;;;;;9.52;1.17;;;;;;;10.67;60.67;101183.94;6093348;23;123950;-79
2023/11/24 05:24:55;;;;;;;6.82;1.10;;;;;;;10.67;60.76;101190.09;6094197;23;124250;-79
2023/11/24 05:27:24;;;;;;;7.10;1.05;;;;;;;10.66;60.47;101188.38;6094016;23;114905;-79
2023/11/24 05:29:51;;;;;;;7.82;1.25;;;;;;;10.67;60.50;101179.50;6091630;23;113732;-79
2023/11/24 05:32:19;;;;;;;11.50;1.80;;;;;;;10.68;60.70;101186.53;6091533;23;124138;-79
2023/11/24 05:34:47;;;;;;;5.90;1.15;;;;;;;10.69;60.92;101198.84;6091542;23;123191;-79
2023/11/24 05:37:14;;;;;;;6.80;1.27;;;;;;;10.70;60.53;101216.47;6092980;23;114229;-79
2023/11/24 05:39:43;;;;;;;9.30;1.35;;;;;;;10.71;60.67;101212.88;6095427;23;113842;-79
2023/11/24 05:42:10;;;;;;;10.65;1.40;;;;;;;10.73;60.62;101204.03;6096028;23;124447;-80
2023/11/24 05:44:38;;;;;;;5.85;1.10;;;;;;;10.68;60.68;101207.72;6095035;23;123072;-80
2023/11/24 05:47:13;;;;;;;6.97;1.05;;;;;;;10.63;60.47;101215.00;6096227;23;114541;-80
2023/11/24 05:49:43;;;;;;;;;;;;;;;10.57;60.66;101201.09;6097478;23;113638;-80
2023/11/24 05:52:15;;;;;;;7.03;1.00;;;;;;;10.52;60.51;101196.00;6093887;23;125466;-78
2023/11/24 05:54:43;;;;;;;5.10;1.00;;;;;;;10.47;60.63;101192.66;6093161;23;123836;-80
2023/11/24 05:57:11;;;;;;;6.03;1.10;;;;;;;10.41;60.89;101198.22;6091509;23;115380;-79
2023/11/24 05:59:39;;;;;;;6.15;1.08;;;;;;;10.38;60.93;101193.03;6093300;23;115135;-79
2023/11/24 06:02:09;;;;;;;4.57;1.02;;;;;;;10.33;61.34;101191.41;6092511;23;124381;-78
2023/11/24 06:04:37;;;;;;;8.30;1.10;;;;;;;10.32;61.18;101189.72;6095165;23;123741;-79
2023/11/24 06:07:06;;;;;;;7.82;1.20;;;;;;;10.31;61.15;101190.63;6096753;23;114824;-79
2023/11/24 06:09:33;;;;;;;6.82;1.30;;;;;;;10.30;61.35;101191.56;6094404;23;112550;-79
2023/11/24 06:12:01;;;;;;;6.18;1.20;;;;;;;10.29;61.51;101195.06;6095489;23;124465;-79
2023/11/24 06:14:34;;;;;;;6.13;0.77;;;;;;;10.26;61.56;101189.03;6098402;23;123755;-79
2023/11/24 06:17:04;;;;;;;8.70;1.17;;;;;;;10.24;61.59;101170.56;6096707;23;113701;-79
2023/11/24 06:19:32;;;;;;;8.55;1.33;;;;;;;10.23;61.48;101163.56;6098471;23;113491;-79
2023/11/24 06:21:59;;;;;;;6.85;1.00;;;;;;;10.21;61.67;101178.63;6094488;23;123591;-79
2023/11/24 06:24:27;;;;;;;8.50;1.30;;;;;;;10.21;61.78;101176.00;6096372;23;123701;-79
2023/11/24 06:27:05;;;;;;;6.15;1.13;;;;;;;10.19;61.94;101169.91;6095262;23;113865;-79
2023/11/24 06:29:32;;;;;;;6.55;1.20;;;;;;;10.18;61.81;101170.81;6097449;23;114050;-80
2023/11/24 06:31:59;;;;;;;7.57;1.20;;;;;;;10.18;61.97;101183.19;6099715;23;124434;-80
2023/11/24 06:34:28;;;;;;;6.55;1.17;;;;;;;10.18;61.98;101186.69;6099988;23;124207;-82
2023/11/24 06:36:55;;;;;;;8.25;1.40;;;;;;;10.19;62.25;101193.72;6100279;23;113299;-80
2023/11/24 06:39:22;;;;;;;8.38;1.17;;;;;;;10.19;62.36;101182.25;6100758;23;113641;-80
2023/11/24 06:41:49;;;;;;;5.78;1.10;;;;;;;10.18;62.17;101181.38;6072628;23;123327;-80
2023/11/24 06:44:18;;;;;;;6.65;0.98;;;;;;;10.17;62.16;101171.75;6099215;23;124432;-80
2023/11/24 06:46:46;;;;;;;6.55;1.00;;;;;;;10.17;62.20;101163.78;6099433;23;115240;-80
2023/11/24 06:49:15;;;;;;;4.45;1.02;;;;;;;10.14;62.36;101169.19;6096988;23;114242;-80
2023/11/24 06:51:46;;;;;;;7.35;0.95;;;;;;;10.12;62.14;101165.75;6095519;23;124359;-79
2023/11/24 06:54:13;;;;;;;7.03;0.98;;;;;;;10.11;62.33;101169.31;6096874;23;124332;-79
2023/11/24 06:56:41;;;;;;;4.93;0.80;;;;;;;10.09;62.42;101176.44;6096707;23;114464;-80
2023/11/24 06:59:08;;;;;;;6.40;1.30;;;;;;;10.06;62.38;101181.88;6094942;23;114208;-81
2023/11/24 07:01:39;;;;;;;5.03;1.10;;;;;;;10.03;62.24;101176.69;6094444;23;124100;-79
2023/11/24 07:04:06;;;;;;;7.07;0.90;;;;;;;10.00;62.15;101171.50;6094241;23;124252;-79
2023/11/24 07:06:34;;;;;;;5.18;1.08;;;;;;;9.97;62.23;101158.38;6096013;23;115049;-79
2023/11/24 07:09:08;;;;;;;7.80;1.20;;;;;;;9.92;62.28;101164.69;6096892;23;114548;-79
2023/11/24 07:11:39;;;;;;;8.27;1.00;;;;;;;9.90;62.38;101166.53;6097162;23;123302;-80
2023/11/24 07:14:06;;;;;;;5.95;0.98;;;;;;;9.89;62.18;101158.69;6099800;23;124146;-80
2023/11/24 07:16:35;;;;;;;6.93;1.17;;;;;;;9.88;62.56;101184.25;6098639;23;113888;-80
2023/11/24 07:19:02;;;;;;;4.85;0.85;;;;;;;9.89;62.47;101196.56;6099182;23;114534;-80
2023/11/24 07:21:30;;;;;;;3.53;0.77;;;;;;;9.88;62.47;101194.84;6098006;23;124213;-81
2023/11/24 07:23:57;;;;;;;3.00;0.80;;;;;;;9.88;62.55;101194.84;6098641;23;124241;-80
2023/11/24 07:26:24;;;;;;;3.60;0.68;;;;;;;9.86;62.58;101191.38;6098448;23;114981;-79
2023/11/24 07:28:53;;;;;;;3.92;1.00;;;;;;;9.84;62.52;101182.63;6098210;23;113968;-79
2023/11/24 07:31:22;;;;;;;4.22;0.80;;;;;;;9.83;62.70;101170.34;6096951;23;124520;-79
2023/11/24 07:33:49;;;;;;;5.90;0.80;;;;;;;9.82;62.54;101168.63;6096049;23;124799;-79
2023/11/24 07:36:18;;;;;;;9.90;1.23;;;;;;;9.81;62.59;101161.59;6098165;23;114956;-79
2023/11/24 07:38:53;;;;;;;3.85;1.10;;;;;;;9.78;62.32;101161.72;6095814;23;114440;-79
2023/11/24 07:41:23;;;;;;;3.07;0.70;;;;;;;9.75;62.20;101162.66;6095991;23;124473;-79
2023/11/24 07:43:50;;;;;;;4.53;0.90;;;;;;;9.71;62.41;101161.06;6098067;23;124222;-79
2023/11/24 07:46:17;;;;;;;4.30;0.88;;;;;;;9.69;62.34;101162.03;6099553;23;114985;-80
2023/11/24 07:48:52;;;;;;;1.63;0.50;;;;;;;9.65;62.24;101160.44;6098563;23;113950;-79
2023/11/24 07:51:21;;;;;;;4.75;1.20;;;;;;;9.63;62.45;101151.69;6096716;23;123685;-78
2023/11/24 07:53:48;;;;;;;3.47;0.63;;;;;;;9.61;62.43;101148.25;6097249;23;123525;-79
2023/11/24 07:56:16;;;;;;;9.82;0.95;;;;;;;9.63;62.61;101151.69;6096648;23;114542;-79
2023/11/24 07:58:47;;;;;;;3.95;0.90;;;;;;;9.61;62.43;101153.53;6097960;23;113229;-79
2023/11/24 08:01:14;;;;;;;5.90;1.02;;;;;;;9.63;62.40;101141.13;6098717;23;123216;-80
2023/11/24 08:03:42;;;;;;;3.78;0.70;;;;;;;9.66;62.46;101146.28;6099917;23;124647;-80
2023/11/24 08:06:15;;;;;;;4.43;0.98;;;;;;;9.67;62.60;101148.03;6098257;23;112397;-80
2023/11/24 08:08:42;;;;;;;6.35;1.05;;;;;;;9.70;62.64;101147.88;6102948;22;114216;-79
2023/11/24 08:11:23;;;;;;;5.25;1.17;;;;;;;9.70;62.42;101147.88;6099539;23;123376;-80
2023/11/24 08:13:50;;;;;;;5.55;0.98;;;;;;;9.72;62.62;101140.78;6098153;23;124012;-79
2023/11/24 08:16:27;;;;;;;6.10;0.75;;;;;;;9.74;62.82;101131.88;6099799;23;114448;-80
2023/11/24 08:18:55;;;;;;;5.25;0.88;;;;;;;9.75;62.63;101124.78;6100072;23;113819;-80
2023/11/24 08:21:33;;;;;;;4.55;1.02;;;;;;;9.78;62.65;101124.69;6096860;23;124208;-80
2023/11/24 08:24:00;;;;;;;3.47;1.10;;;;;;;9.81;62.23;101124.53;6097244;23;124531;-80
2023/11/24 08:26:38;;;;;;;6.75;0.90;;;;;;;9.83;62.55;101133.31;6097560;23;115740;-79
2023/11/24 08:29:05;;;;;;;9.65;1.13;;;;;;;9.83;62.69;101133.31;6096765;23;114930;-80
2023/11/24 08:31:53;;;;;;;7.00;1.20;;;;;;;9.83;62.67;101138.59;6093900;23;122572;-78
2023/11/24 08:34:20;;;;;;;6.60;1.10;;;;;;;9.83;62.62;101133.31;6092026;23;124154;-80
2023/11/24 08:36:48;;;;;;;4.47;0.90;;;;;;;9.84;62.64;101129.72;6101430;23;113637;-80
2023/11/24 08:39:17;;;;;;;9.05;1.10;;;;;;;9.85;62.82;101120.00;6108682;23;114921;-81
2023/11/24 08:41:48;;;;;;;6.50;1.17;;;;;;;9.87;62.71;101119.06;6106459;23;124789;-79
2023/11/24 08:44:33;;;;;;;7.28;1.00;;;;;;;9.89;62.61;101121.66;6105436;23;124454;-79
2023/11/24 08:47:03;;;;;;;7.30;1.10;;;;;;;9.89;62.68;101114.56;6100406;23;113376;-79
2023/11/24 08:49:33;;;;;;;4.15;1.05;;;;;;;9.90;62.84;101103.03;6101243;23;114058;-79
2023/11/24 08:52:01;;;;;;;3.97;0.82;;;;;;;9.91;62.72;101110.06;6103080;23;123662;-79
2023/11/24 08:54:28;;;;;;;8.57;1.20;;;;;;;9.90;62.40;101108.31;6101649;23;123404;-80
2023/11/24 08:56:58;;;;;;;6.78;1.08;;;;;;;9.89;62.47;101106.63;6101478;23;114586;-79
2023/11/24 08:59:26;;;;;;;3.78;1.00;;;;;;;9.89;62.70;101117.22;6101035;23;114196;-79
2023/11/24 09:01:53;;;;;;;5.13;1.08;;;;;;;9.89;62.39;101111.06;6106571;23;123940;-78
2023/11/24 09:04:22;;;;;;;4.85;1.10;;;;;;;9.90;62.55;101108.31;6094959;23;124270;-73
2023/11/24 09:07:12;;;;;;;5.97;1.25;;;;;;;9.89;62.59;101096.03;6094741;23;113996;-79
2023/11/24 09:09:41;;;;;;;6.03;1.30;;;;;;;9.90;62.58;101118.91;6097572;23;115825;-78
2023/11/24 09:12:12;;;;;;;3.53;0.70;;;;;;;9.89;62.66;101106.63;6094982;23;123582;-79
2023/11/24 09:14:40;;;;;;;4.47;0.80;;;;;;;9.90;62.74;101103.03;6094654;23;123843;-78
2023/11/24 09:17:09;;;;;;;4.07;0.95;;;;;;;9.92;62.74;101111.78;6099855;23;116440;-79
2023/11/24 09:19:39;;;;;;;4.05;0.70;;;;;;;9.94;62.72;101107.31;6097304;23;113991;-79
2023/11/24 09:22:14;;;;;;;4.20;0.93;;;;;;;9.98;62.93;101099.25;6098873;23;124494;-79
2023/11/24 09:24:41;;;;;;;2.55;0.77;;;;;;;10.03;62.88;101092.00;6096457;23;123969;-79
2023/11/24 09:27:10;;;;;;;5.57;0.93;;;;;;;10.07;62.90;101101.53;6097593;23;113817;-79
2023/11/24 09:29:37;;;;;;;3.58;0.90;;;;;;;10.10;62.76;101098.78;6098508;23;114305;-79
2023/11/24 09:32:05;;;;;;;4.88;0.80;;;;;;;10.11;62.70;101105.78;6100384;22;125339;-77
2023/11/24 09:34:32;;;;;;;5.50;0.80;;;;;;;10.09;62.52;101097.03;6097841;23;123831;-78
2023/11/24 09:37:01;;;;;;;3.40;0.80;;;;;;;10.08;62.36;101103.28;6095620;23;114476;-78
2023/11/24 09:39:28;;;;;;;3.05;0.68;;;;;;;10.02;62.06;101100.84;6097381;23;114568;-76
2023/11/24 09:42:08;;;;;;;1.42;0.40;;;;;;;9.91;61.97;101110.06;6095799;23;123766;-79
2023/11/24 09:44:39;;;;;;;5.65;0.60;;;;;;;9.83;61.96;101106.88;6095859;23;124415;-79
2023/11/24 09:47:06;;;;;;;5.35;0.70;;;;;;;9.75;61.99;101098.34;6101164;23;114778;-79
2023/11/24 09:49:40;;;;;;;1.75;0.40;;;;;;;9.68;62.00;101096.84;6096808;23;113890;-80
2023/11/24 09:52:07;;;;;;;1.75;0.35;;;;;;;9.64;62.08;101095.22;6097453;23;124143;-77
2023/11/24 09:54:37;;;;;;;1.80;0.30;;;;;;;9.60;62.26;101088.34;6098052;23;122912;-79
2023/11/24 09:57:04;;;;;;;1.33;0.57;;;;;;;9.57;62.10;101093.72;6098295;23;114366;-80
2023/11/24 09:59:32;;;;;;;2.67;0.40;;;;;;;9.57;62.17;101088.44;6098504;23;113187;-77
2023/11/24 10:02:11;;;;;;;0.38;0.28;;;;;;;9.57;62.28;101089.31;6096301;23;123758;-78
2023/11/24 10:04:39;;;;;;;1.55;0.40;;;;;;;9.58;62.51;101088.38;6098857;23;124450;-79
2023/11/24 10:07:23;;;;;;;2.15;0.68;;;;;;;9.59;62.51;101086.59;6096521;23;116557;-78
2023/11/24 10:09:51;;;;;;;0.77;0.50;;;;;;;9.62;62.62;101086.50;6098721;23;115345;-78
2023/11/24 10:12:21;;;;;;;1.77;0.60;;;;;;;9.64;62.40;101079.34;6094517;23;124311;-78
2023/11/24 10:14:49;;;;;;;1.95;0.60;;;;;;;9.68;62.65;101075.66;6096046;23;123380;-78
2023/11/24 10:17:32;;;;;;;1.45;0.50;;;;;;;9.71;62.74;101080.84;6096942;23;113895;-78
2023/11/24 10:20:09;;;;;;;0.82;0.30;;;;;;;9.77;62.63;101074.47;6097559;23;115083;-78
2023/11/24 10:22:59;;;;;;;2.08;0.60;;;;;;;9.84;62.84;101070.69;6094378;23;123557;-78
2023/11/24 10:25:33;;;;;;;2.03;0.40;;;;;;;9.90;62.82;101076.59;6097505;23;124222;-79
2023/11/24 10:28:07;;;;;;;1.88;0.63;;;;;;;9.97;62.64;101086.94;6097528;23;114533;-78
2023/11/24 10:30:38;;;;;;;1.75;0.50;;;;;;;10.00;62.52;101092.09;6100054;23;113833;-79
2023/11/24 10:33:06;;;;;;;0.52;0.40;;;;;;;9.99;62.22;101069.22;6097343;23;123807;-81
2023/11/24 10:35:35;;;;;;;3.65;0.50;;;;;;;9.92;62.10;101069.44;6100147;23;125221;-78
2023/11/24 10:38:03;;;;;;;1.40;0.50;;;;;;;9.83;62.23;101064.53;6098903;23;114103;-80
2023/11/24 10:40:38;;;;;;;2.47;0.45;;;;;;;9.75;61.74;101074.53;6099915;23;114729;-78
2023/11/24 10:43:07;;;;;;;2.97;0.63;;;;;;;9.68;61.82;101071.28;6097188;23;123985;-79
2023/11/24 10:45:37;;;;;;;4.50;0.60;;;;;;;9.64;61.88;101069.63;6097638;23;124492;-79
2023/11/24 10:48:42;;;;;;;0.75;0.30;;;;;;;9.59;61.91;101070.72;6098816;23;114110;-78
2023/11/24 10:51:27;;;;;;;2.13;0.68;;;;;;;9.58;61.98;101063.72;6096265;23;113277;-79
2023/11/24 10:53:56;;;;;;;3.05;0.70;;;;;;;9.57;62.10;101051.41;6096558;23;124336;-78
2023/11/24 10:56:25;;;;;;;1.80;0.47;;;;;;;9.57;62.14;101046.13;6095496;23;124081;-79
2023/11/24 10:58:59;;;;;;;0.60;0.40;;;;;;;9.59;62.17;101028.41;6096228;23;114526;-77
2023/11/24 11:01:28;;;;;;;1.30;0.50;;;;;;;9.63;62.39;101030.06;6093242;23;115617;-79
2023/11/24 11:03:59;;;;;;;2.65;0.60;;;;;;;9.69;62.44;101029.81;6095457;23;125082;-78
2023/11/24 11:06:48;;;;;;;5.47;0.70;;;;;;;9.78;62.71;101018.03;6096151;23;124911;-78
2023/11/24 11:09:29;;;;;;;3.05;0.73;;;;;;;9.87;62.63;101029.09;6095436;23;113131;-80
2023/11/24 11:12:31;;;;;;;2.60;0.70;;;;;;;9.97;62.60;101040.19;6097572;23;113919;-80
2023/11/24 11:14:59;;;;;;;6.28;0.98;;;;;;;10.03;62.48;101028.50;6098918;23;124536;-79
2023/11/24 11:17:26;;;;;;;5.32;0.93;;;;;;;10.07;61.94;101024.78;6100468;23;124575;-80
2023/11/24 11:20:30;;;;;;;3.22;0.80;;;;;;;10.09;62.22;101022.94;6100735;23;114320;-82
2023/11/24 11:22:59;;;;;;;5.68;0.80;;;;;;;10.08;62.13;101021.25;6097869;23;113021;-81
2023/11/24 11:25:46;;;;;;;4.45;0.65;;;;;;;10.09;61.86;101017.66;6070552;23;125028;-79
2023/11/24 11:28:17;;;;;;;3.65;0.90;;;;;;;10.11;62.03;101024.63;6100375;23;122618;-80
2023/11/24 11:30:51;;;;;;;6.28;0.90;;;;;;;10.13;61.83;101024.53;6097969;23;114683;-80
2023/11/24 11:33:19;;;;;;;6.60;0.80;;;;;;;10.17;61.83;101020.88;6096297;23;114578;-78
2023/11/24 11:36:03;;;;;;;6.90;0.95;;;;;;;10.19;61.49;101026.06;6098234;23;124817;-81